createdAt,value
2023-03-06T00:00:50.398Z,3.25
2023-03-06T00:03:20.902Z,3.22
2023-03-06T00:05:51.500Z,2.96
2023-03-06T00:08:21.819Z,2.90
2023-03-06T00:10:52.144Z,2.81
2023-03-06T00:13:26.842Z,2.81
2023-03-06T00:16:02.639Z,2.81
2023-03-06T00:18:36.372Z,2.85
2023-03-06T00:21:10.470Z,2.87
2023-03-06T00:23:41.440Z,2.89
2023-03-06T00:26:12.478Z,2.93
2023-03-06T00:28:43.073Z,2.87
2023-03-06T00:31:16.341Z,2.87
2023-03-06T00:33:46.499Z,2.91
2023-03-06T00:36:16.613Z,2.90
2023-03-06T00:38:46.754Z,2.92
2023-03-06T00:41:18.211Z,2.94
2023-03-06T00:43:48.402Z,2.93
2023-03-06T00:46:21.128Z,2.94
2023-03-06T00:48:51.755Z,2.94
2023-03-06T00:51:25.004Z,2.87
2023-03-06T00:53:55.296Z,2.85
2023-03-06T00:56:27.759Z,2.85
2023-03-06T00:58:57.877Z,2.74
2023-03-06T01:01:30.639Z,2.77
2023-03-06T01:04:00.947Z,2.81
2023-03-06T01:06:31.223Z,2.78
2023-03-06T01:09:04.554Z,2.79
2023-03-06T01:11:37.618Z,2.83
2023-03-06T01:14:08.353Z,2.79
2023-03-06T01:16:41.249Z,2.82
2023-03-06T01:19:13.006Z,2.79
2023-03-06T01:21:43.257Z,2.76
2023-03-06T01:24:13.355Z,2.76
2023-03-06T01:26:43.516Z,2.63
2023-03-06T01:29:14.158Z,2.63
2023-03-06T01:31:46.975Z,2.64
2023-03-06T01:34:17.582Z,2.62
2023-03-06T01:36:47.847Z,2.59
2023-03-06T01:39:18.824Z,2.58
2023-03-06T01:41:49.026Z,2.55
2023-03-06T01:44:19.183Z,2.53
2023-03-06T01:46:51.967Z,2.56
2023-03-06T01:49:25.424Z,2.51
2023-03-06T01:51:58.512Z,2.49
2023-03-06T01:54:31.381Z,2.42
2023-03-06T01:57:07.170Z,2.47
2023-03-06T01:59:39.670Z,2.51
2023-03-06T02:02:14.924Z,2.48
2023-03-06T02:04:45.247Z,2.42
2023-03-06T02:07:17.156Z,2.52
2023-03-06T02:09:50.490Z,2.48
2023-03-06T02:12:22.673Z,2.42
2023-03-06T02:14:57.371Z,2.34
2023-03-06T02:17:33.131Z,2.34
2023-03-06T02:20:10.824Z,2.34
2023-03-06T02:22:48.931Z,2.23
2023-03-06T02:25:38.834Z,2.12
2023-03-06T02:28:11.802Z,2.36
2023-03-06T02:30:43.438Z,2.42
2023-03-06T02:33:15.032Z,2.42
2023-03-06T02:35:52.512Z,2.46
2023-03-06T02:38:25.771Z,2.47
2023-03-06T02:40:59.824Z,2.46
2023-03-06T02:43:34.567Z,2.38
2023-03-06T02:46:06.938Z,2.45
2023-03-06T02:48:37.126Z,2.41
2023-03-06T02:51:07.580Z,2.38
2023-03-06T02:53:40.589Z,2.41
2023-03-06T02:56:13.546Z,2.44
2023-03-06T02:58:44.394Z,2.41
2023-03-06T03:01:15.044Z,2.42
2023-03-06T03:03:45.186Z,2.38
2023-03-06T03:06:15.447Z,2.40
2023-03-06T03:08:45.657Z,2.41
2023-03-06T03:11:18.326Z,2.44
2023-03-06T03:13:48.587Z,2.45
2023-03-06T03:16:18.948Z,2.46
2023-03-06T03:18:51.172Z,2.46
2023-03-06T03:21:22.043Z,2.48
2023-03-06T03:23:52.399Z,2.49
2023-03-06T03:26:25.567Z,2.48
2023-03-06T03:28:58.480Z,2.39
2023-03-06T03:31:28.838Z,2.37
2023-03-06T03:34:01.718Z,2.40
2023-03-06T03:36:32.031Z,2.45
2023-03-06T03:39:02.169Z,2.45
2023-03-06T03:41:37.456Z,2.50
2023-03-06T03:44:07.796Z,2.49
2023-03-06T03:46:38.028Z,2.51
2023-03-06T03:49:09.066Z,2.58
2023-03-06T03:51:41.521Z,2.76
2023-03-06T03:54:11.782Z,2.90
2023-03-06T03:56:45.288Z,2.98
2023-03-06T03:59:15.463Z,3.03
2023-03-06T04:01:46.033Z,3.13
2023-03-06T04:04:16.883Z,3.23
2023-03-06T04:06:47.301Z,3.23
2023-03-06T04:09:17.488Z,3.32
2023-03-06T04:11:51.430Z,3.37
2023-03-06T04:14:21.884Z,3.54
2023-03-06T04:16:53.025Z,3.63
2023-03-06T04:19:26.018Z,3.65
2023-03-06T04:21:56.335Z,3.71
2023-03-06T04:24:26.426Z,3.75
2023-03-06T04:26:59.214Z,3.79
2023-03-06T04:29:29.368Z,3.79
2023-03-06T04:31:59.952Z,3.81
2023-03-06T04:34:31.256Z,3.84
2023-03-06T04:37:01.455Z,3.90
2023-03-06T04:39:31.611Z,3.95
2023-03-06T04:42:04.520Z,3.93
2023-03-06T04:44:34.738Z,3.96
2023-03-06T04:47:04.835Z,3.95
2023-03-06T04:49:35.178Z,3.95
2023-03-06T04:52:05.447Z,4.07
2023-03-06T04:54:35.894Z,4.10
2023-03-06T04:57:08.882Z,4.14
2023-03-06T04:59:39.346Z,4.12
2023-03-06T05:02:10.374Z,4.18
2023-03-06T05:04:40.821Z,4.21
2023-03-06T05:07:11.047Z,4.15
2023-03-06T05:09:41.191Z,4.19
2023-03-06T05:12:14.017Z,4.19
2023-03-06T05:14:45.643Z,4.22
2023-03-06T05:17:17.353Z,4.25
2023-03-06T05:19:47.484Z,4.30
2023-03-06T05:22:17.659Z,4.30
2023-03-06T05:24:48.012Z,4.32
2023-03-06T05:27:20.799Z,4.37
2023-03-06T05:29:51.197Z,4.40
2023-03-06T05:32:21.482Z,4.35
2023-03-06T05:34:51.664Z,4.39
2023-03-06T05:37:23.177Z,4.42
2023-03-06T05:39:54.174Z,4.41
2023-03-06T05:42:28.735Z,4.38
2023-03-06T05:44:58.973Z,4.35
2023-03-06T05:47:29.447Z,4.50
2023-03-06T05:49:59.645Z,4.35
2023-03-06T05:52:32.575Z,4.50
2023-03-06T05:55:05.693Z,4.54
2023-03-06T05:57:40.966Z,4.62
2023-03-06T06:00:15.973Z,4.67
2023-03-06T06:02:46.328Z,4.69
2023-03-06T06:05:19.327Z,4.72
2023-03-06T06:07:49.416Z,4.78
2023-03-06T06:10:19.563Z,4.81
2023-03-06T06:12:52.366Z,4.89
2023-03-06T06:15:22.569Z,4.89
2023-03-06T06:17:52.916Z,4.92
2023-03-06T06:20:23.747Z,4.98
2023-03-06T06:22:54.378Z,4.95
2023-03-06T06:25:24.584Z,5.06
2023-03-06T06:28:00.204Z,5.10
2023-03-06T06:30:31.307Z,5.21
2023-03-06T06:33:02.472Z,5.30
2023-03-06T06:35:32.694Z,5.31
2023-03-06T06:38:03.195Z,5.27
2023-03-06T06:40:33.340Z,5.42
2023-03-06T06:43:06.192Z,5.41
2023-03-06T06:45:36.332Z,5.54
2023-03-06T06:48:07.300Z,5.62
2023-03-06T06:50:37.614Z,5.81
2023-03-06T06:53:08.125Z,5.89
2023-03-06T06:55:40.675Z,5.88
2023-03-06T06:58:13.488Z,6.03
2023-03-06T07:00:43.695Z,6.04
2023-03-06T07:03:15.112Z,6.11
2023-03-06T07:05:45.648Z,6.02
2023-03-06T07:08:15.984Z,6.12
2023-03-06T07:10:46.395Z,6.14
2023-03-06T07:13:19.212Z,6.21
2023-03-06T07:15:49.608Z,6.46
2023-03-06T07:18:19.784Z,6.62
2023-03-06T07:20:49.999Z,6.70
2023-03-06T07:23:20.150Z,6.65
2023-03-06T07:25:50.598Z,6.69
2023-03-06T07:28:23.903Z,6.29
2023-03-06T07:30:54.810Z,6.50
2023-03-06T07:33:27.451Z,6.55
2023-03-06T07:35:57.745Z,6.54
2023-03-06T07:38:28.023Z,6.71
2023-03-06T07:40:58.305Z,6.73
2023-03-06T07:43:34.030Z,6.68
2023-03-06T07:46:04.262Z,6.68
2023-03-06T07:48:34.663Z,6.58
2023-03-06T07:51:07.502Z,6.60
2023-03-06T07:53:40.075Z,6.42
2023-03-06T07:56:11.989Z,6.45
2023-03-06T07:58:48.216Z,6.61
2023-03-06T08:01:20.123Z,6.44
2023-03-06T08:07:03.574Z,6.44
2023-03-06T08:09:34.248Z,6.30
2023-03-06T08:12:04.611Z,6.34
2023-03-06T08:14:37.808Z,6.31
2023-03-06T08:17:08.639Z,6.26
2023-03-06T08:19:41.388Z,6.21
2023-03-06T08:22:17.869Z,6.27
2023-03-06T08:24:50.370Z,6.19
2023-03-06T08:27:20.511Z,6.26
2023-03-06T08:29:53.299Z,6.20
2023-03-06T08:32:23.628Z,6.30
2023-03-06T08:34:53.923Z,6.36
2023-03-06T08:37:24.132Z,6.20
2023-03-06T08:39:54.320Z,6.30
2023-03-06T08:42:24.689Z,6.18
2023-03-06T08:44:59.562Z,6.26
2023-03-06T08:47:34.900Z,6.07
2023-03-06T08:50:06.644Z,6.12
2023-03-06T08:52:36.876Z,6.00
2023-03-06T08:55:07.697Z,6.10
2023-03-06T08:57:38.013Z,5.99
2023-03-06T09:00:15.250Z,6.14
2023-03-06T09:02:45.459Z,6.03
2023-03-06T09:05:18.030Z,6.02
2023-03-06T09:07:48.273Z,5.86
2023-03-06T09:10:23.385Z,6.07
2023-03-06T09:12:55.093Z,5.95
2023-03-06T09:15:29.200Z,5.95
2023-03-06T09:17:59.534Z,5.98
2023-03-06T09:20:30.957Z,6.09
2023-03-06T09:23:01.232Z,6.09
2023-03-06T09:25:31.691Z,6.11
2023-03-06T09:28:11.393Z,5.96
2023-03-06T09:30:45.806Z,6.05
2023-03-06T09:33:16.485Z,5.91
2023-03-06T09:35:52.570Z,5.98
2023-03-06T09:38:25.331Z,6.11
2023-03-06T09:41:06.219Z,6.13
2023-03-06T09:43:40.661Z,6.19
2023-03-06T09:46:22.167Z,6.21
2023-03-06T09:49:10.353Z,6.20
2023-03-06T09:51:54.578Z,6.17
2023-03-06T09:54:32.407Z,6.20
2023-03-06T09:57:02.539Z,6.18
2023-03-06T09:59:34.683Z,6.14
2023-03-06T10:02:17.039Z,6.12
2023-03-06T10:04:54.707Z,6.06
2023-03-06T10:07:31.140Z,6.08
2023-03-06T10:10:05.352Z,6.08
2023-03-06T10:12:40.852Z,6.21
2023-03-06T10:15:18.005Z,6.28
2023-03-06T10:17:51.573Z,6.30
2023-03-06T10:20:24.681Z,6.23
2023-03-06T10:23:13.004Z,6.29
2023-03-06T10:25:55.882Z,6.35
2023-03-06T10:28:35.058Z,6.46
2023-03-06T10:31:12.447Z,6.45
2023-03-06T10:33:56.915Z,6.50
2023-03-06T10:36:31.843Z,6.46
2023-03-06T10:39:02.825Z,6.45
2023-03-06T10:41:36.234Z,6.54
2023-03-06T10:44:25.687Z,6.60
2023-03-06T10:46:57.190Z,6.53
2023-03-06T10:49:38.670Z,6.57
2023-03-06T10:52:23.955Z,6.59
2023-03-06T10:54:54.284Z,6.56
2023-03-06T10:57:31.199Z,6.64
2023-03-06T11:00:04.804Z,6.58
2023-03-06T11:02:37.439Z,6.67
2023-03-06T11:05:22.102Z,6.80
2023-03-06T11:07:59.737Z,6.93
2023-03-06T11:10:47.449Z,7.00
2023-03-06T11:13:25.693Z,7.05
2023-03-06T11:16:04.128Z,7.06
2023-03-06T11:18:42.189Z,7.03
2023-03-06T11:21:35.349Z,7.04
2023-03-06T11:24:08.864Z,7.21
2023-03-06T11:26:48.538Z,7.42
2023-03-06T11:29:32.423Z,7.69
2023-03-06T11:32:12.552Z,7.84
2023-03-06T11:34:50.689Z,7.97
2023-03-06T11:37:32.817Z,7.79
2023-03-06T11:40:09.503Z,7.76
2023-03-06T11:42:43.753Z,7.68
2023-03-06T11:45:29.353Z,7.76
2023-03-06T11:48:08.382Z,7.73
2023-03-06T11:50:41.954Z,7.83
2023-03-06T11:53:19.143Z,7.39
2023-03-06T11:56:00.605Z,7.38
2023-03-06T11:59:12.231Z,7.72
2023-03-06T12:01:50.604Z,7.90
2023-03-06T12:04:41.675Z,7.87
2023-03-06T12:07:23.863Z,7.89
2023-03-06T12:10:08.462Z,7.87
2023-03-06T12:13:02.076Z,7.75
2023-03-06T12:15:59.560Z,7.78
2023-03-06T12:18:38.956Z,7.71
2023-03-06T12:21:14.351Z,7.27
2023-03-06T12:24:06.021Z,7.31
2023-03-06T12:27:11.961Z,7.36
2023-03-06T12:29:58.880Z,6.58
2023-03-06T12:32:42.810Z,6.95
2023-03-06T12:35:31.638Z,7.25
2023-03-06T12:38:11.823Z,7.43
2023-03-06T12:41:13.648Z,7.50
2023-03-06T12:44:15.156Z,7.32
2023-03-06T12:46:47.871Z,7.48
2023-03-06T12:49:32.011Z,7.46
2023-03-06T12:52:21.646Z,7.49
2023-03-06T12:54:56.439Z,7.42
2023-03-06T12:57:28.127Z,7.27
2023-03-06T13:00:01.565Z,7.28
2023-03-06T13:03:02.324Z,6.86
2023-03-06T13:06:12.142Z,7.06
2023-03-06T13:09:10.228Z,7.21
2023-03-06T13:12:06.747Z,7.13
2023-03-06T13:14:56.305Z,7.20
2023-03-06T13:17:35.330Z,7.24
2023-03-06T13:20:29.700Z,7.36
2023-03-06T13:23:00.264Z,7.33
2023-03-06T13:25:53.045Z,7.34
2023-03-06T13:28:27.826Z,7.07
2023-03-06T13:30:58.898Z,7.05
2023-03-06T13:33:57.754Z,7.16
2023-03-06T13:36:31.535Z,7.10
2023-03-06T13:39:08.761Z,7.08
2023-03-06T13:42:01.117Z,7.05
2023-03-06T13:44:46.125Z,6.90
2023-03-06T13:48:02.816Z,6.73
2023-03-06T13:50:37.822Z,6.69
2023-03-06T13:53:37.635Z,6.76
2023-03-06T13:56:36.644Z,7.06
2023-03-06T13:59:25.526Z,7.04
2023-03-06T14:02:06.842Z,7.03
2023-03-06T14:04:41.252Z,7.15
2023-03-06T14:07:27.980Z,7.01
2023-03-06T14:10:06.156Z,7.30
2023-03-06T14:12:39.082Z,7.31
2023-03-06T14:15:19.275Z,7.35
2023-03-06T14:17:57.723Z,7.33
2023-03-06T14:20:38.262Z,7.06
2023-03-06T14:23:29.468Z,6.77
2023-03-06T14:26:18.785Z,6.99
2023-03-06T14:28:59.292Z,7.01
2023-03-06T14:31:34.642Z,7.21
2023-03-06T14:34:10.947Z,7.06
2023-03-06T14:36:47.408Z,7.36
2023-03-06T14:39:23.009Z,7.38
2023-03-06T14:41:55.327Z,7.47
2023-03-06T14:44:28.077Z,7.51
2023-03-06T14:47:29.270Z,7.45
2023-03-06T14:50:24.512Z,7.30
2023-03-06T14:52:58.167Z,7.16
2023-03-06T14:55:30.807Z,7.46
2023-03-06T14:58:05.363Z,7.08
2023-03-06T15:00:39.414Z,7.14
2023-03-06T15:03:19.224Z,6.78
2023-03-06T15:05:53.178Z,7.02
2023-03-06T15:08:30.595Z,7.13
2023-03-06T15:11:03.827Z,7.18
2023-03-06T15:13:35.966Z,6.98
2023-03-06T15:16:10.169Z,7.10
2023-03-06T15:18:58.240Z,6.91
2023-03-06T15:21:30.050Z,6.88
2023-03-06T15:24:00.648Z,6.79
2023-03-06T15:26:34.375Z,6.46
2023-03-06T15:29:19.999Z,6.23
2023-03-06T15:31:50.439Z,6.51
2023-03-06T15:34:27.923Z,6.63
2023-03-06T15:37:00.253Z,6.62
2023-03-06T15:39:48.660Z,6.46
2023-03-06T15:42:23.727Z,6.52
2023-03-06T15:45:05.763Z,6.43
2023-03-06T15:47:36.585Z,6.38
2023-03-06T15:50:17.323Z,6.09
2023-03-06T15:52:48.188Z,6.28
2023-03-06T15:55:21.199Z,6.20
2023-03-06T15:57:55.864Z,5.93
2023-03-06T16:00:28.971Z,6.02
2023-03-06T16:02:59.734Z,5.85
2023-03-06T16:05:33.157Z,5.61
2023-03-06T16:08:03.721Z,5.74
2023-03-06T16:10:38.939Z,5.55
2023-03-06T16:13:14.025Z,5.58
2023-03-06T16:15:51.118Z,5.59
2023-03-06T16:18:24.443Z,5.58
2023-03-06T16:20:59.661Z,5.54
2023-03-06T16:23:30.213Z,5.51
2023-03-06T16:26:00.387Z,5.59
2023-03-06T16:28:30.649Z,5.43
2023-03-06T16:31:00.847Z,5.57
2023-03-06T16:33:31.000Z,5.58
2023-03-06T16:36:03.726Z,5.56
2023-03-06T16:38:36.245Z,5.58
2023-03-06T16:41:06.995Z,5.43
2023-03-06T16:43:37.432Z,5.55
2023-03-06T16:46:10.195Z,5.59
2023-03-06T16:48:40.832Z,5.59
2023-03-06T16:51:17.754Z,5.62
2023-03-06T16:53:48.842Z,5.64
2023-03-06T16:56:21.774Z,5.72
2023-03-06T16:58:52.067Z,5.57
2023-03-06T17:01:23.060Z,5.60
2023-03-06T17:03:56.104Z,5.66
2023-03-06T17:06:28.949Z,5.63
2023-03-06T17:09:00.335Z,5.58
2023-03-06T17:11:31.045Z,5.63
2023-03-06T17:14:01.318Z,5.46
2023-03-06T17:16:31.519Z,5.53
2023-03-06T17:19:02.599Z,5.63
2023-03-06T17:21:38.637Z,5.59
2023-03-06T17:24:12.966Z,5.64
2023-03-06T17:26:44.471Z,5.65
2023-03-06T17:29:15.198Z,5.68
2023-03-06T17:31:46.231Z,5.72
2023-03-06T17:34:16.444Z,5.67
2023-03-06T17:36:49.466Z,5.71
2023-03-06T17:39:19.897Z,5.73
2023-03-06T17:41:50.069Z,5.75
2023-03-06T17:44:20.326Z,5.80
2023-03-06T17:46:51.474Z,5.79
2023-03-06T17:49:23.465Z,5.85
2023-03-06T17:51:59.908Z,5.87
2023-03-06T17:54:30.593Z,5.92
2023-03-06T17:57:03.561Z,5.88
2023-03-06T17:59:36.617Z,5.95
2023-03-06T18:02:06.969Z,5.88
2023-03-06T18:04:37.182Z,5.86
2023-03-06T18:07:10.408Z,5.91
2023-03-06T18:09:40.683Z,5.86
2023-03-06T18:12:14.048Z,5.93
2023-03-06T18:14:44.230Z,5.93
2023-03-06T18:17:17.104Z,5.92
2023-03-06T18:19:47.625Z,5.91
2023-03-06T18:22:23.306Z,5.92
2023-03-06T18:24:53.475Z,5.90
2023-03-06T18:27:23.723Z,5.91
2023-03-06T18:29:55.681Z,5.89
2023-03-06T18:32:28.017Z,5.85
2023-03-06T18:34:58.363Z,5.82
2023-03-06T18:37:31.146Z,5.85
2023-03-06T18:40:01.618Z,5.78
2023-03-06T18:42:31.811Z,5.81
2023-03-06T18:45:02.128Z,5.85
2023-03-06T18:47:32.505Z,5.84
2023-03-06T18:50:02.825Z,5.85
2023-03-06T18:52:36.472Z,5.87
2023-03-06T18:55:07.045Z,5.84
2023-03-06T18:57:37.344Z,5.86
2023-03-06T19:00:11.688Z,5.84
2023-03-06T19:02:41.886Z,5.82
2023-03-06T19:05:12.621Z,5.82
2023-03-06T19:07:45.601Z,5.80
2023-03-06T19:10:16.015Z,5.73
2023-03-06T19:12:46.176Z,5.69
2023-03-06T19:15:16.731Z,5.62
2023-03-06T19:17:49.764Z,5.61
2023-03-06T19:20:20.802Z,5.59
2023-03-06T19:22:54.105Z,5.51
2023-03-06T19:25:24.691Z,5.45
2023-03-06T19:27:57.921Z,5.38
2023-03-06T19:30:28.285Z,5.31
2023-03-06T19:32:59.419Z,5.26
2023-03-06T19:35:31.615Z,5.16
2023-03-06T19:38:04.476Z,5.12
2023-03-06T19:40:35.387Z,5.06
2023-03-06T19:43:05.569Z,5.04
2023-03-06T19:45:36.901Z,5.02
2023-03-06T19:48:12.509Z,5.01
2023-03-06T19:50:42.762Z,4.97
2023-03-06T19:53:16.081Z,5.00
2023-03-06T19:55:46.569Z,4.98
2023-03-06T19:58:16.759Z,4.97
2023-03-06T20:00:47.108Z,4.98
2023-03-06T20:03:18.138Z,4.98
2023-03-06T20:05:51.414Z,4.93
2023-03-06T20:08:24.224Z,4.96
2023-03-06T20:10:54.470Z,4.89
2023-03-06T20:13:24.887Z,4.86
2023-03-06T20:15:55.348Z,4.81
2023-03-06T20:18:25.913Z,4.81
2023-03-06T20:21:02.186Z,4.78
2023-03-06T20:23:35.534Z,4.79
2023-03-06T20:26:07.340Z,4.76
2023-03-06T20:28:39.244Z,4.79
2023-03-06T20:31:11.311Z,4.81
2023-03-06T20:33:41.993Z,4.81
2023-03-06T20:36:18.811Z,4.68
2023-03-06T20:38:51.679Z,4.74
2023-03-06T20:41:23.640Z,4.69
2023-03-06T20:43:54.516Z,4.67
2023-03-06T20:46:26.313Z,4.67
2023-03-06T20:48:58.329Z,4.61
2023-03-06T20:51:31.798Z,4.55
2023-03-06T20:54:05.179Z,4.61
2023-03-06T20:56:40.607Z,4.55
2023-03-06T20:59:15.099Z,4.45
2023-03-06T21:01:51.161Z,4.41
2023-03-06T21:04:21.339Z,4.38
2023-03-06T21:06:51.524Z,4.34
2023-03-06T21:09:24.527Z,4.33
2023-03-06T21:11:54.748Z,4.29
2023-03-06T21:14:24.857Z,4.25
2023-03-06T21:16:55.107Z,4.19
2023-03-06T21:19:25.395Z,4.15
2023-03-06T21:21:57.938Z,4.01
2023-03-06T21:24:30.728Z,4.08
2023-03-06T21:27:00.984Z,4.05
2023-03-06T21:29:31.192Z,4.07
2023-03-06T21:32:02.678Z,4.08
2023-03-06T21:34:32.879Z,4.07
2023-03-06T21:37:03.805Z,4.07
2023-03-06T21:39:36.697Z,4.15
2023-03-06T21:42:07.178Z,4.09
2023-03-06T21:44:37.358Z,4.03
2023-03-06T21:47:07.954Z,4.01
2023-03-06T21:49:38.259Z,3.97
2023-03-06T21:52:08.563Z,3.93
2023-03-06T21:54:41.542Z,3.90
2023-03-06T21:57:11.880Z,3.86
2023-03-06T21:59:42.231Z,3.70
2023-03-06T22:02:14.122Z,3.60
2023-03-06T22:04:44.758Z,3.52
2023-03-06T22:07:14.985Z,3.47
2023-03-06T22:09:47.831Z,3.38
2023-03-06T22:12:17.985Z,3.31
2023-03-06T22:14:49.145Z,3.21
2023-03-06T22:17:19.299Z,3.17
2023-03-06T22:19:51.390Z,3.15
2023-03-06T22:22:21.765Z,3.16
2023-03-06T22:24:54.481Z,3.19
2023-03-06T22:27:27.526Z,3.26
2023-03-06T22:29:57.785Z,3.26
2023-03-06T22:32:28.163Z,3.27
2023-03-06T22:34:58.332Z,3.31
2023-03-06T22:37:28.418Z,3.33
2023-03-06T22:40:01.303Z,3.38
2023-03-06T22:42:31.662Z,3.42
2023-03-06T22:45:02.060Z,3.44
2023-03-06T22:47:33.107Z,3.45
2023-03-06T22:50:03.364Z,3.41
2023-03-06T22:52:33.562Z,3.37
2023-03-06T22:55:06.826Z,3.33
2023-03-06T22:57:36.915Z,3.29
2023-03-06T23:00:11.157Z,3.24
2023-03-06T23:02:41.273Z,3.20
2023-03-06T23:05:12.046Z,3.11
2023-03-06T23:07:44.683Z,3.06
2023-03-06T23:10:17.743Z,3.04
2023-03-06T23:12:47.867Z,2.98
2023-03-06T23:15:18.204Z,3.01
2023-03-06T23:17:48.392Z,2.98
2023-03-06T23:20:18.667Z,3.00
2023-03-06T23:22:48.921Z,3.03
2023-03-06T23:25:21.876Z,3.08
2023-03-06T23:27:52.199Z,3.14
2023-03-06T23:30:22.609Z,3.17
2023-03-06T23:32:52.732Z,3.17
2023-03-06T23:35:22.959Z,3.08
2023-03-06T23:37:53.132Z,3.07
2023-03-06T23:40:25.870Z,2.88
2023-03-06T23:42:56.184Z,3.01
2023-03-06T23:45:26.379Z,3.06
2023-03-06T23:47:56.513Z,3.07
2023-03-06T23:50:27.161Z,3.05
2023-03-06T23:52:58.044Z,3.07
2023-03-06T23:55:30.825Z,3.06
2023-03-06T23:58:00.980Z,3.06
